Time;durP1;ratioP1;P1;durP2;ratioP2;P2;SDS_P1;SDS_P2;PMS_P1;PMS_P2;Temp;Humidity;BMP_temperature;BMP_pressure;BME280_temperature;BME280_humidity;BME280_pressure;Samples;Min_cycle;Max_cycle;Signal;HPM_P1;HPM_P2
2024/04/09 00:00:28;;;;;;;3.80;2.22;;;;;;;;;;5384448;26;19999;-73
2024/04/09 00:02:54;;;;;;;4.00;2.08;;;;;;;;;;5391269;26;20004;-73
2024/04/09 00:05:19;;;;;;;4.07;2.70;;;;;;;;;;5380135;26;20000;-73
2024/04/09 00:07:45;;;;;;;4.28;2.28;;;;;;;;;;5378556;26;20000;-73
2024/04/09 00:10:12;;;;;;;6.20;2.40;;;;;;;;;;5388215;26;20000;-73
2024/04/09 00:12:38;;;;;;;4.45;2.35;;;;;;;;;;5386295;26;20074;-72
2024/04/09 00:15:07;;;;;;;5.57;2.38;;;;;;;;;;5385727;26;20036;-73
2024/04/09 00:17:34;;;;;;;5.30;2.28;;;;;;;;;;5388060;26;20357;-73
2024/04/09 00:19:59;;;;;;;3.90;2.10;;;;;;;;;;5395430;26;20004;-73
2024/04/09 00:22:27;;;;;;;5.25;2.15;;;;;;;;;;5393313;26;20018;-73
2024/04/09 00:24:52;;;;;;;4.22;2.15;;;;;;;;;;5388998;26;20092;-73
2024/04/09 00:27:18;;;;;;;5.22;2.25;;;;;;;;;;5387526;26;20019;-73
2024/04/09 00:29:44;;;;;;;3.63;2.25;;;;;;;;;;5383377;26;20081;-73
2024/04/09 00:32:09;;;;;;;5.10;2.95;;;;;;;;;;5390901;26;20012;-73
2024/04/09 00:34:34;;;;;;;4.10;2.55;;;;;;;;;;5393170;26;20441;-73
2024/04/09 00:36:59;;;;;;;6.22;2.63;;;;;;;;;;5392849;26;20058;-73
2024/04/09 00:39:27;;;;;;;4.07;2.45;;;;;;;;;;5388389;26;19996;-73
2024/04/09 00:41:53;;;;;;;5.82;2.65;;;;;;;;;;5392900;26;20013;-73
2024/04/09 00:44:20;;;;;;;6.05;2.67;;;;;;;;;;5381940;26;20091;-73
2024/04/09 00:46:48;;;;;;;3.90;2.42;;;;;;;;;;5379191;26;20485;-72
2024/04/09 00:49:14;;;;;;;3.90;2.22;;;;;;;;;;5397589;26;20076;-73
2024/04/09 00:51:41;;;;;;;6.75;2.42;;;;;;;;;;5388191;26;20015;-73
2024/04/09 00:54:10;;;;;;;3.20;2.00;;;;;;;;;;5399530;26;20011;-73
2024/04/09 00:56:37;;;;;;;4.25;2.60;;;;;;;;;;5381436;26;20037;-73
2024/04/09 00:59:04;;;;;;;5.60;3.15;;;;;;;;;;5392292;26;20014;-73
2024/04/09 01:01:30;;;;;;;5.18;3.25;;;;;;;;;;5385193;26;20015;-72
2024/04/09 01:03:55;;;;;;;7.18;3.00;;;;;;;;;;5405773;26;20528;-73
2024/04/09 01:06:20;;;;;;;5.70;2.38;;;;;;;;;;5390272;26;19995;-72
2024/04/09 01:08:46;;;;;;;4.38;2.63;;;;;;;;;;5386351;26;20001;-72
2024/04/09 01:11:11;;;;;;;4.93;2.65;;;;;;;;;;5383036;26;20019;-72
2024/04/09 01:13:38;;;;;;;4.15;2.50;;;;;;;;;;5379826;26;20000;-73
2024/04/09 01:16:03;;;;;;;6.03;2.72;;;;;;;;;;5391957;26;20078;-73
2024/04/09 01:18:29;;;;;;;5.55;2.50;;;;;;;;;;5392961;26;20464;-73
2024/04/09 01:20:54;;;;;;;9.27;2.53;;;;;;;;;;5391536;26;20081;-72
2024/04/09 01:23:19;;;;;;;5.43;2.15;;;;;;;;;;5388823;26;20000;-73
2024/04/09 01:25:45;;;;;;;4.97;2.20;;;;;;;;;;5384969;26;20019;-72
2024/04/09 01:28:10;;;;;;;4.28;2.88;;;;;;;;;;5401272;26;20012;-72
2024/04/09 01:30:37;;;;;;;4.70;2.55;;;;;;;;;;5384762;26;20345;-73
2024/04/09 01:33:04;;;;;;;5.43;2.50;;;;;;;;;;5393720;26;20364;-72
2024/04/09 01:35:29;;;;;;;5.05;2.50;;;;;;;;;;5389035;26;20015;-73
2024/04/09 01:37:55;;;;;;;5.90;3.28;;;;;;;;;;5384853;26;20726;-72
2024/04/09 01:40:20;;;;;;;5.78;2.70;;;;;;;;;;5380732;26;20004;-73
2024/04/09 01:42:45;;;;;;;7.40;2.33;;;;;;;;;;5380057;26;20077;-72
2024/04/09 01:45:10;;;;;;;4.70;2.22;;;;;;;;;;5406268;26;20066;-73
2024/04/09 01:47:36;;;;;;;4.85;1.80;;;;;;;;;;5400014;26;20059;-72
2024/04/09 01:50:03;;;;;;;4.53;2.15;;;;;;;;;;5391631;26;20004;-72
2024/04/09 01:52:29;;;;;;;3.53;2.10;;;;;;;;;;5385434;26;20004;-72
2024/04/09 01:54:54;;;;;;;4.30;2.30;;;;;;;;;;5383605;26;20018;-72
2024/04/09 01:57:20;;;;;;;7.35;2.42;;;;;;;;;;5387178;26;20004;-73
2024/04/09 01:59:45;;;;;;;4.47;2.28;;;;;;;;;;5392364;26;20004;-72
2024/04/09 02:02:13;;;;;;;5.05;2.03;;;;;;;;;;5402411;26;20003;-72
2024/04/09 02:04:38;;;;;;;4.68;1.90;;;;;;;;;;5391848;26;20000;-73
2024/04/09 02:07:04;;;;;;;4.30;2.47;;;;;;;;;;5386582;26;20058;-73
2024/04/09 02:09:29;;;;;;;7.05;2.88;;;;;;;;;;5387053;26;20000;-73
2024/04/09 02:11:54;;;;;;;4.75;2.17;;;;;;;;;;5388730;26;20012;-73
2024/04/09 02:14:20;;;;;;;6.47;2.17;;;;;;;;;;5395242;26;20448;-74
2024/04/09 02:16:45;;;;;;;6.38;3.42;;;;;;;;;;5395399;26;20267;-73
2024/04/09 02:19:12;;;;;;;4.93;3.00;;;;;;;;;;5387774;26;20010;-73
2024/04/09 02:21:37;;;;;;;5.30;2.80;;;;;;;;;;5383657;26;20000;-73
2024/04/09 02:24:02;;;;;;;5.85;2.40;;;;;;;;;;5381432;26;20484;-72
2024/04/09 02:26:29;;;;;;;5.22;2.17;;;;;;;;;;5392292;26;20007;-73
2024/04/09 02:28:54;;;;;;;3.60;1.83;;;;;;;;;;5391913;26;19996;-72
2024/04/09 02:31:19;;;;;;;6.55;2.08;;;;;;;;;;5369821;26;20010;-73
2024/04/09 02:33:44;;;;;;;4.30;1.80;;;;;;;;;;5392909;26;20007;-73
2024/04/09 02:36:11;;;;;;;5.65;2.08;;;;;;;;;;5379200;26;20757;-73
2024/04/09 02:38:36;;;;;;;4.13;1.90;;;;;;;;;;5386857;26;20004;-73
2024/04/09 02:41:16;;;;;;;4.63;1.80;;;;;;;;;;5380024;26;19996;-73
2024/04/09 02:43:42;;;;;;;5.10;2.10;;;;;;;;;;5390998;26;20281;-73
2024/04/09 02:46:08;;;;;;;5.57;1.98;;;;;;;;;;5390072;26;20001;-73
2024/04/09 02:48:33;;;;;;;6.30;2.38;;;;;;;;;;5391451;26;20476;-73
2024/04/09 02:51:00;;;;;;;6.15;2.40;;;;;;;;;;5383073;26;20004;-73
2024/04/09 02:53:25;;;;;;;4.25;1.70;;;;;;;;;;5393099;26;20007;-73
2024/04/09 02:55:59;;;;;;;5.38;2.00;;;;;;;;;;5398976;26;20073;-73
2024/04/09 02:58:24;;;;;;;4.07;2.00;;;;;;;;;;5369819;26;20000;-73
2024/04/09 03:00:50;;;;;;;5.68;1.95;;;;;;;;;;5388311;26;20037;-73
2024/04/09 03:03:15;;;;;;;6.57;2.00;;;;;;;;;;5391896;26;20442;-73
2024/04/09 03:05:40;;;;;;;5.43;1.90;;;;;;;;;;5387185;26;20068;-73
2024/04/09 03:08:05;;;;;;;3.80;2.10;;;;;;;;;;5389558;26;20012;-73
2024/04/09 03:10:34;;;;;;;4.32;1.67;;;;;;;;;;5379376;26;20004;-73
2024/04/09 03:12:59;;;;;;;4.50;1.98;;;;;;;;;;5389982;26;20453;-73
2024/04/09 03:15:25;;;;;;;4.70;2.13;;;;;;;;;;5391737;26;20047;-73
2024/04/09 03:17:51;;;;;;;6.15;2.47;;;;;;;;;;5387058;26;20480;-73
2024/04/09 03:20:16;;;;;;;5.80;2.08;;;;;;;;;;5388206;26;20003;-73
2024/04/09 03:22:42;;;;;;;6.43;2.28;;;;;;;;;;5385642;26;20076;-73
2024/04/09 03:25:07;;;;;;;5.93;2.05;;;;;;;;;;5380330;26;20069;-73
2024/04/09 03:27:32;;;;;;;3.83;1.70;;;;;;;;;;5378992;26;20402;-73
2024/04/09 03:29:59;;;;;;;4.00;2.40;;;;;;;;;;5378823;26;20460;-73
2024/04/09 03:32:25;;;;;;;4.68;2.10;;;;;;;;;;5385988;26;20018;-73
2024/04/09 03:34:50;;;;;;;4.68;2.17;;;;;;;;;;5378250;26;20001;-73
2024/04/09 03:37:15;;;;;;;5.10;2.30;;;;;;;;;;5378784;26;20362;-73
2024/04/09 03:39:40;;;;;;;6.45;2.40;;;;;;;;;;5392362;26;20449;-73
2024/04/09 03:42:06;;;;;;;4.00;2.30;;;;;;;;;;5378302;26;20354;-73
2024/04/09 03:44:31;;;;;;;6.88;2.70;;;;;;;;;;5380753;26;20011;-73
2024/04/09 03:46:57;;;;;;;4.78;2.03;;;;;;;;;;5380641;26;20515;-73
2024/04/09 03:49:22;;;;;;;6.63;4.35;;;;;;;;;;5401220;26;21357;-73
2024/04/09 03:51:47;;;;;;;7.78;4.15;;;;;;;;;;5389071;26;20000;-73
2024/04/09 03:54:12;;;;;;;6.47;2.85;;;;;;;;;;5398019;26;20004;-73
2024/04/09 03:56:37;;;;;;;3.83;2.03;;;;;;;;;;5381630;26;20411;-73
2024/04/09 03:59:04;;;;;;;4.68;2.45;;;;;;;;;;5381784;26;20372;-73
2024/04/09 04:01:30;;;;;;;6.05;3.50;;;;;;;;;;5382016;26;20014;-73
2024/04/09 04:03:56;;;;;;;4.00;2.60;;;;;;;;;;5386238;26;20000;-73
2024/04/09 04:06:21;;;;;;;4.68;2.13;;;;;;;;;;5382665;26;20360;-73
2024/04/09 04:08:47;;;;;;;5.40;2.35;;;;;;;;;;5378336;26;19992;-72
2024/04/09 04:11:14;;;;;;;3.95;1.90;;;;;;;;;;5387016;26;20014;-72
2024/04/09 04:13:40;;;;;;;3.60;2.08;;;;;;;;;;5386696;26;20008;-73
2024/04/09 04:16:09;;;;;;;5.18;1.90;;;;;;;;;;5378213;26;20014;-73
2024/04/09 04:18:39;;;;;;;3.50;1.67;;;;;;;;;;5395363;26;20077;-73
2024/04/09 04:21:04;;;;;;;3.80;2.03;;;;;;;;;;5393514;26;20000;-73
2024/04/09 04:23:30;;;;;;;10.02;5.47;;;;;;;;;;5394326;26;20012;-73
2024/04/09 04:25:55;;;;;;;10.20;4.85;;;;;;;;;;5395979;26;20011;-73
2024/04/09 04:28:21;;;;;;;11.10;7.07;;;;;;;;;;5394108;26;19999;-73
2024/04/09 04:30:46;;;;;;;10.07;5.75;;;;;;;;;;5396188;26;20014;-73
2024/04/09 04:33:11;;;;;;;3.75;2.22;;;;;;;;;;5392503;26;20028;-73
2024/04/09 04:35:36;;;;;;;5.53;3.50;;;;;;;;;;5391123;26;20010;-73
2024/04/09 04:38:03;;;;;;;5.68;3.95;;;;;;;;;;5386646;26;20468;-73
2024/04/09 04:40:28;;;;;;;6.60;2.33;;;;;;;;;;5387873;26;20078;-72
2024/04/09 04:42:53;;;;;;;5.13;1.90;;;;;;;;;;5384685;26;20007;-73
2024/04/09 04:45:19;;;;;;;5.13;1.85;;;;;;;;;;5392171;26;19996;-73
2024/04/09 04:47:44;;;;;;;3.67;1.90;;;;;;;;;;5383172;26;19996;-73
2024/04/09 04:50:09;;;;;;;5.68;2.05;;;;;;;;;;5384763;26;19996;-72
2024/04/09 04:52:34;;;;;;;3.00;1.63;;;;;;;;;;5385185;26;20444;-73
2024/04/09 04:54:59;;;;;;;4.25;2.10;;;;;;;;;;5384790;26;19999;-72
2024/04/09 04:57:25;;;;;;;6.40;2.10;;;;;;;;;;5378073;26;20480;-73
2024/04/09 04:59:50;;;;;;;5.43;1.73;;;;;;;;;;5396438;26;20852;-73
2024/04/09 05:02:15;;;;;;;3.78;2.10;;;;;;;;;;5392243;26;20000;-73
2024/04/09 05:04:41;;;;;;;4.55;1.70;;;;;;;;;;5386423;26;20338;-73
2024/04/09 05:07:08;;;;;;;6.22;4.13;;;;;;;;;;5379974;26;20449;-73
2024/04/09 05:09:33;;;;;;;7.57;4.20;;;;;;;;;;5379753;26;20373;-73
2024/04/09 05:11:59;;;;;;;5.53;3.50;;;;;;;;;;5385807;26;20019;-73
2024/04/09 05:14:24;;;;;;;7.32;2.70;;;;;;;;;;5388707;26;20052;-73
2024/04/09 05:16:50;;;;;;;5.47;2.30;;;;;;;;;;5377052;26;20785;-73
2024/04/09 05:19:15;;;;;;;6.68;2.00;;;;;;;;;;5376730;26;19993;-73
2024/04/09 05:21:40;;;;;;;6.03;2.22;;;;;;;;;;5379791;26;20032;-73
2024/04/09 05:24:06;;;;;;;3.45;1.75;;;;;;;;;;5388640;26;20593;-73
2024/04/09 05:26:31;;;;;;;5.28;1.80;;;;;;;;;;5390221;26;20498;-73
2024/04/09 05:28:57;;;;;;;5.22;2.50;;;;;;;;;;5376768;26;20000;-73
2024/04/09 05:31:22;;;;;;;4.57;2.17;;;;;;;;;;5386945;26;20004;-73
2024/04/09 05:33:47;;;;;;;6.20;2.50;;;;;;;;;;5387659;26;19996;-72
2024/04/09 05:36:12;;;;;;;5.72;2.72;;;;;;;;;;5380260;26;20008;-73
2024/04/09 05:38:37;;;;;;;6.93;2.17;;;;;;;;;;5384339;26;19993;-73
2024/04/09 05:41:03;;;;;;;5.28;1.88;;;;;;;;;;5398433;26;20285;-73
2024/04/09 05:43:28;;;;;;;12.52;2.78;;;;;;;;;;5399092;26;20003;-73
2024/04/09 05:45:53;;;;;;;5.55;1.80;;;;;;;;;;5380213;26;19996;-72
2024/04/09 05:48:19;;;;;;;6.38;2.35;;;;;;;;;;5384858;26;19995;-73
2024/04/09 05:50:44;;;;;;;4.85;2.50;;;;;;;;;;5376574;26;20004;-73
2024/04/09 05:53:09;;;;;;;5.15;2.75;;;;;;;;;;5397809;26;20526;-72
2024/04/09 05:55:35;;;;;;;2.93;1.83;;;;;;;;;;5375904;26;19996;-73
2024/04/09 05:58:01;;;;;;;5.38;2.33;;;;;;;;;;5389565;26;21015;-73
2024/04/09 06:00:26;;;;;;;5.43;2.17;;;;;;;;;;5382268;26;20079;-73
2024/04/09 06:02:53;;;;;;;3.30;1.80;;;;;;;;;;5403318;26;20022;-73
2024/04/09 06:05:18;;;;;;;4.88;2.20;;;;;;;;;;5379523;26;20235;-73
2024/04/09 06:07:44;;;;;;;10.85;2.63;;;;;;;;;;5380507;26;20449;-73
2024/04/09 06:10:12;;;;;;;10.23;3.88;;;;;;;;;;5390442;26;20004;-73
2024/04/09 06:12:37;;;;;;;6.20;4.03;;;;;;;;;;5401914;26;20010;-73
2024/04/09 06:15:02;;;;;;;4.82;2.47;;;;;;;;;;5390293;26;20028;-73
2024/04/09 06:17:28;;;;;;;6.82;3.25;;;;;;;;;;5384253;26;20001;-73
2024/04/09 06:19:57;;;;;;;6.85;4.25;;;;;;;;;;5381289;26;19996;-73
2024/04/09 06:22:22;;;;;;;5.95;3.85;;;;;;;;;;5398813;26;20087;-73
2024/04/09 06:24:48;;;;;;;7.18;3.50;;;;;;;;;;5396706;26;20012;-73
2024/04/09 06:27:13;;;;;;;7.72;3.67;;;;;;;;;;5395138;26;20009;-73
2024/04/09 06:29:40;;;;;;;5.22;3.40;;;;;;;;;;5382999;26;20015;-73
2024/04/09 06:32:05;;;;;;;8.27;4.80;;;;;;;;;;5395025;26;20452;-73
2024/04/09 06:34:30;;;;;;;7.88;4.57;;;;;;;;;;5396544;26;20004;-73
2024/04/09 06:36:55;;;;;;;6.90;2.20;;;;;;;;;;5386268;26;19992;-73
2024/04/09 06:39:21;;;;;;;5.27;3.00;;;;;;;;;;5400844;26;20233;-73
2024/04/09 06:41:46;;;;;;;6.60;3.80;;;;;;;;;;5388829;26;20226;-73
2024/04/09 06:44:11;;;;;;;5.90;2.92;;;;;;;;;;5389309;26;20035;-73
2024/04/09 06:46:36;;;;;;;5.25;2.17;;;;;;;;;;5378010;26;19996;-73
2024/04/09 06:49:02;;;;;;;7.38;3.78;;;;;;;;;;5378049;26;20048;-73
2024/04/09 06:51:28;;;;;;;4.07;2.05;;;;;;;;;;5378167;26;20073;-73
2024/04/09 06:53:53;;;;;;;5.32;2.40;;;;;;;;;;5395847;26;20023;-73
2024/04/09 06:56:18;;;;;;;6.22;3.33;;;;;;;;;;5383907;26;20000;-73
2024/04/09 06:58:47;;;;;;;5.97;4.50;;;;;;;;;;5383818;26;20000;-73
2024/04/09 07:01:12;;;;;;;6.40;2.20;;;;;;;;;;5378868;26;20032;-73
2024/04/09 07:03:37;;;;;;;7.57;2.95;;;;;;;;;;5393752;26;20004;-73
2024/04/09 07:06:03;;;;;;;8.43;3.30;;;;;;;;;;5378993;26;20015;-73
2024/04/09 07:08:28;;;;;;;6.40;3.17;;;;;;;;;;5379116;26;20238;-73
2024/04/09 07:10:56;;;;;;;7.20;4.20;;;;;;;;;;5379267;26;20035;-73
2024/04/09 07:13:21;;;;;;;6.38;4.15;;;;;;;;;;5399458;26;20071;-73
2024/04/09 07:15:47;;;;;;;5.05;3.42;;;;;;;;;;5379007;26;20011;-73
2024/04/09 07:18:12;;;;;;;5.20;3.03;;;;;;;;;;5385851;26;20019;-73
2024/04/09 07:20:37;;;;;;;4.80;3.00;;;;;;;;;;5378792;26;20015;-74
2024/04/09 07:23:03;;;;;;;5.73;4.00;;;;;;;;;;5393053;26;20241;-73
2024/04/09 07:25:29;;;;;;;5.40;4.30;;;;;;;;;;5378614;26;20262;-73
2024/04/09 07:27:54;;;;;;;5.10;3.60;;;;;;;;;;5393993;26;20000;-73
2024/04/09 07:30:20;;;;;;;6.25;3.40;;;;;;;;;;5378750;26;20000;-73
2024/04/09 07:32:45;;;;;;;9.10;3.60;;;;;;;;;;5397704;26;20007;-73
2024/04/09 07:35:10;;;;;;;5.90;3.60;;;;;;;;;;5379186;26;20000;-73
2024/04/09 07:37:35;;;;;;;6.10;3.15;;;;;;;;;;5378656;26;20246;-74
2024/04/09 07:40:01;;;;;;;4.40;2.72;;;;;;;;;;5378428;26;20004;-73
2024/04/09 07:42:26;;;;;;;6.07;3.40;;;;;;;;;;5393197;26;20451;-73
2024/04/09 07:44:51;;;;;;;10.53;3.53;;;;;;;;;;5379273;26;20468;-73
2024/04/09 07:47:17;;;;;;;5.97;3.13;;;;;;;;;;5378447;26;20234;-73
2024/04/09 07:49:42;;;;;;;7.68;3.08;;;;;;;;;;5378593;26;20411;-73
2024/04/09 07:52:08;;;;;;;8.20;3.27;;;;;;;;;;5378480;26;20003;-73
2024/04/09 07:54:33;;;;;;;7.68;3.13;;;;;;;;;;5382307;26;20250;-73
2024/04/09 07:56:58;;;;;;;6.70;3.50;;;;;;;;;;5378182;26;20004;-73
2024/04/09 07:59:23;;;;;;;6.03;3.00;;;;;;;;;;5378673;26;20250;-73
2024/04/09 08:01:49;;;;;;;9.98;3.60;;;;;;;;;;5378087;26;20246;-74
2024/04/09 08:04:14;;;;;;;5.88;1.98;;;;;;;;;;5393168;26;20000;-73
2024/04/09 08:06:39;;;;;;;4.87;2.03;;;;;;;;;;5378316;26;20018;-73
2024/04/09 08:09:05;;;;;;;3.97;1.80;;;;;;;;;;5377871;26;20606;-73
2024/04/09 08:11:30;;;;;;;7.38;2.60;;;;;;;;;;5378104;26;20795;-74
2024/04/09 08:13:55;;;;;;;5.93;2.03;;;;;;;;;;5386032;26;20461;-73
2024/04/09 08:16:20;;;;;;;5.83;1.97;;;;;;;;;;5383210;26;20238;-73
2024/04/09 08:18:45;;;;;;;4.70;1.90;;;;;;;;;;5382548;26;20264;-73
2024/04/09 08:21:11;;;;;;;8.85;2.67;;;;;;;;;;5381187;26;19996;-73
2024/04/09 08:23:36;;;;;;;4.65;2.08;;;;;;;;;;5382278;26;19996;-73
2024/04/09 08:26:01;;;;;;;7.90;2.88;;;;;;;;;;5383133;26;20007;-73
2024/04/09 08:28:26;;;;;;;9.57;3.10;;;;;;;;;;5378447;26;20014;-73
2024/04/09 08:30:52;;;;;;;7.47;2.90;;;;;;;;;;5378001;26;19997;-73
2024/04/09 08:33:17;;;;;;;9.70;2.95;;;;;;;;;;5392829;26;20000;-73
2024/04/09 08:35:46;;;;;;;4.82;2.60;;;;;;;;;;5377515;26;19996;-73
2024/04/09 08:38:12;;;;;;;4.60;2.70;;;;;;;;;;5377551;26;20019;-73
2024/04/09 08:40:38;;;;;;;7.20;2.75;;;;;;;;;;5383519;26;20348;-73
2024/04/09 08:43:03;;;;;;;6.50;1.85;;;;;;;;;;5385476;26;20000;-73
2024/04/09 08:45:30;;;;;;;5.82;2.25;;;;;;;;;;5380485;26;20015;-73
2024/04/09 08:47:56;;;;;;;6.20;2.85;;;;;;;;;;5380479;26;19997;-73
2024/04/09 08:50:21;;;;;;;8.27;2.50;;;;;;;;;;5384613;26;20472;-73
2024/04/09 08:52:47;;;;;;;11.30;3.38;;;;;;;;;;5382428;26;20088;-74
2024/04/09 08:55:15;;;;;;;6.10;2.10;;;;;;;;;;5379506;26;20635;-73
2024/04/09 08:57:40;;;;;;;5.07;1.98;;;;;;;;;;5377336;26;20020;-73
2024/04/09 09:00:06;;;;;;;4.07;2.10;;;;;;;;;;5377018;26;20004;-74
2024/04/09 09:02:32;;;;;;;6.97;2.03;;;;;;;;;;5381632;26;20242;-73
2024/04/09 09:04:58;;;;;;;5.85;2.47;;;;;;;;;;5384528;26;20001;-74
2024/04/09 09:07:24;;;;;;;6.00;1.98;;;;;;;;;;5377404;26;20033;-73
2024/04/09 09:09:50;;;;;;;8.85;3.22;;;;;;;;;;5377716;26;20019;-74
2024/04/09 09:12:15;;;;;;;7.78;2.53;;;;;;;;;;5376922;26;20028;-73
2024/04/09 09:14:54;;;;;;;3.70;2.15;;;;;;;;;;5387329;26;20000;-73
2024/04/09 09:17:19;;;;;;;4.22;2.13;;;;;;;;;;5376734;26;20642;-73
2024/04/09 09:19:45;;;;;;;5.22;2.10;;;;;;;;;;5377137;26;20011;-73
2024/04/09 09:22:10;;;;;;;5.77;2.47;;;;;;;;;;5377640;26;20015;-73
2024/04/09 09:24:36;;;;;;;8.13;2.38;;;;;;;;;;5389137;26;20235;-73
2024/04/09 09:27:07;;;;;;;6.93;2.45;;;;;;;;;;5377904;26;20435;-73
2024/04/09 09:29:33;;;;;;;9.30;3.67;;;;;;;;;;5392428;26;20353;-73
2024/04/09 09:31:59;;;;;;;5.00;2.20;;;;;;;;;;5383669;26;20000;-73
2024/04/09 09:34:44;;;;;;;7.05;2.92;;;;;;;;;;5376952;26;20309;-73
2024/04/09 09:37:10;;;;;;;9.18;2.30;;;;;;;;;;5379046;26;20000;-73
2024/04/09 09:39:39;;;;;;;5.00;1.90;;;;;;;;;;5393422;26;19995;-74
2024/04/09 09:42:11;;;;;;;5.05;2.25;;;;;;;;;;5390694;26;20016;-73
2024/04/09 09:44:40;;;;;;;4.88;2.08;;;;;;;;;;5393004;26;20037;-73
2024/04/09 09:47:05;;;;;;;6.63;2.42;;;;;;;;;;5379027;26;20033;-73
2024/04/09 09:49:31;;;;;;;6.53;2.67;;;;;;;;;;5379851;26;20004;-73
2024/04/09 09:51:56;;;;;;;5.32;2.10;;;;;;;;;;5379507;26;20012;-73
2024/04/09 09:54:25;;;;;;;6.30;2.13;;;;;;;;;;5395951;26;20392;-74
2024/04/09 09:56:52;;;;;;;5.53;2.20;;;;;;;;;;5383722;26;20004;-73
2024/04/09 09:59:18;;;;;;;5.00;2.15;;;;;;;;;;5392828;26;20011;-73
2024/04/09 10:01:48;;;;;;;4.65;1.80;;;;;;;;;;5391763;26;20000;-73
2024/04/09 10:04:22;;;;;;;5.95;2.10;;;;;;;;;;5405489;26;20011;-73
2024/04/09 10:06:56;;;;;;;5.10;2.28;;;;;;;;;;5392641;26;20043;-74
2024/04/09 10:09:37;;;;;;;5.72;2.28;;;;;;;;;;5384551;26;20480;-74
2024/04/09 10:12:02;;;;;;;5.95;2.03;;;;;;;;;;5379370;26;20053;-73
2024/04/09 10:14:27;;;;;;;6.50;2.97;;;;;;;;;;5396540;26;20000;-74
2024/04/09 10:16:53;;;;;;;9.43;2.57;;;;;;;;;;5382428;26;20348;-74
2024/04/09 10:19:18;;;;;;;6.22;2.22;;;;;;;;;;5386220;26;20976;-73
2024/04/09 10:21:46;;;;;;;4.93;2.78;;;;;;;;;;5389555;26;19999;-73
2024/04/09 10:24:12;;;;;;;7.32;2.28;;;;;;;;;;5395989;26;20019;-73
2024/04/09 10:26:37;;;;;;;5.65;2.30;;;;;;;;;;5393157;26;20049;-74
2024/04/09 10:29:03;;;;;;;8.98;2.13;;;;;;;;;;5394314;26;20015;-73
2024/04/09 10:31:28;;;;;;;8.05;2.63;;;;;;;;;;5401776;26;20004;-73
2024/04/09 10:33:56;;;;;;;4.03;2.00;;;;;;;;;;5402683;26;20007;-73
2024/04/09 10:36:22;;;;;;;5.82;2.35;;;;;;;;;;5396355;26;20000;-73
2024/04/09 10:38:47;;;;;;;7.50;2.13;;;;;;;;;;5393102;26;20011;-73
2024/04/09 10:41:12;;;;;;;5.78;2.28;;;;;;;;;;5393495;26;20245;-73
2024/04/09 10:43:37;;;;;;;5.10;2.67;;;;;;;;;;5404386;26;20082;-74
2024/04/09 10:46:04;;;;;;;6.30;2.73;;;;;;;;;;5393628;26;20016;-73
2024/04/09 10:48:29;;;;;;;7.88;2.67;;;;;;;;;;5392745;26;20756;-73
2024/04/09 10:50:54;;;;;;;4.65;2.58;;;;;;;;;;5396168;26;20053;-73
2024/04/09 10:53:21;;;;;;;7.80;2.53;;;;;;;;;;5399330;26;20014;-73
2024/04/09 10:55:47;;;;;;;5.90;2.42;;;;;;;;;;5393908;26;19996;-73
2024/04/09 10:58:15;;;;;;;5.90;2.33;;;;;;;;;;5379043;26;20015;-73
2024/04/09 11:00:42;;;;;;;7.40;3.28;;;;;;;;;;5379321;26;20004;-73
2024/04/09 11:03:10;;;;;;;3.88;1.73;;;;;;;;;;5389574;26;20004;-74
2024/04/09 11:05:35;;;;;;;8.23;2.40;;;;;;;;;;5387270;26;20015;-74
2024/04/09 11:08:01;;;;;;;4.32;2.05;;;;;;;;;;5378539;26;19996;-73
2024/04/09 11:10:26;;;;;;;7.43;2.90;;;;;;;;;;5379046;26;20016;-74
2024/04/09 11:12:51;;;;;;;8.00;2.83;;;;;;;;;;5381153;26;20238;-74
2024/04/09 11:15:17;;;;;;;8.77;2.60;;;;;;;;;;5388666;26;20015;-74
2024/04/09 11:17:42;;;;;;;7.68;2.20;;;;;;;;;;5379103;26;20473;-74
2024/04/09 11:20:14;;;;;;;5.18;2.20;;;;;;;;;;5392570;26;20000;-74
2024/04/09 11:22:42;;;;;;;7.97;2.67;;;;;;;;;;5382305;26;20023;-74
2024/04/09 11:25:11;;;;;;;9.68;2.38;;;;;;;;;;5395469;26;19992;-73
2024/04/09 11:27:38;;;;;;;6.68;2.45;;;;;;;;;;5399621;26;20009;-74
2024/04/09 11:30:07;;;;;;;7.47;2.45;;;;;;;;;;5393158;26;20004;-73
2024/04/09 11:32:32;;;;;;;9.27;2.45;;;;;;;;;;5392389;26;20014;-74
2024/04/09 11:34:57;;;;;;;10.23;2.70;;;;;;;;;;5395509;26;20001;-74
2024/04/09 11:37:22;;;;;;;8.70;2.40;;;;;;;;;;5387106;26;20046;-74
2024/04/09 11:39:48;;;;;;;9.48;2.10;;;;;;;;;;5379716;26;20677;-73
2024/04/09 11:42:13;;;;;;;14.15;2.97;;;;;;;;;;5378636;26;20011;-73
2024/04/09 11:44:38;;;;;;;8.33;2.80;;;;;;;;;;5388431;26;20444;-74
2024/04/09 11:47:03;;;;;;;15.47;2.87;;;;;;;;;;5390788;26;20004;-74
2024/04/09 11:49:29;;;;;;;11.93;3.47;;;;;;;;;;5385803;26;20230;-74
2024/04/09 11:51:54;;;;;;;13.20;3.60;;;;;;;;;;5378566;26;20231;-74
2024/04/09 11:54:20;;;;;;;14.02;3.50;;;;;;;;;;5382438;26;20042;-74
2024/04/09 11:56:45;;;;;;;15.30;3.87;;;;;;;;;;5387798;26;19996;-74
2024/04/09 11:59:10;;;;;;;14.67;3.50;;;;;;;;;;5378929;26;20309;-74
2024/04/09 12:01:35;;;;;;;26.33;5.20;;;;;;;;;;5387728;26;20326;-73
2024/04/09 12:04:00;;;;;;;18.42;4.35;;;;;;;;;;5387490;26;20003;-74
2024/04/09 12:06:28;;;;;;;17.70;4.00;;;;;;;;;;5385865;26;20014;-74
2024/04/09 12:08:53;;;;;;;20.95;4.40;;;;;;;;;;5385464;26;20000;-74
2024/04/09 12:11:18;;;;;;;18.83;4.33;;;;;;;;;;5395045;26;20000;-74
2024/04/09 12:13:44;;;;;;;22.95;4.90;;;;;;;;;;5385915;26;20278;-73
2024/04/09 12:16:09;;;;;;;32.20;5.00;;;;;;;;;;5386622;26;20015;-73
2024/04/09 12:18:35;;;;;;;15.65;4.40;;;;;;;;;;5378434;26;20074;-73
2024/04/09 12:21:00;;;;;;;14.70;3.47;;;;;;;;;;5383842;26;20082;-74
2024/04/09 12:23:25;;;;;;;17.60;4.67;;;;;;;;;;5388441;26;20312;-74
2024/04/09 12:25:50;;;;;;;17.42;4.45;;;;;;;;;;5391097;26;20226;-73
2024/04/09 12:28:16;;;;;;;14.97;4.60;;;;;;;;;;5390915;26;20000;-74
2024/04/09 12:30:41;;;;;;;20.63;4.37;;;;;;;;;;5379728;26;20745;-74
2024/04/09 12:33:06;;;;;;;14.55;3.35;;;;;;;;;;5387180;26;20041;-73
2024/04/09 12:35:31;;;;;;;19.03;5.47;;;;;;;;;;5385195;26;19988;-73
2024/04/09 12:37:57;;;;;;;33.30;6.57;;;;;;;;;;5383335;26;20578;-73
2024/04/09 12:40:22;;;;;;;21.42;5.00;;;;;;;;;;5393818;26;20687;-74
2024/04/09 12:42:49;;;;;;;21.27;4.60;;;;;;;;;;5381882;26;20012;-74
2024/04/09 12:45:15;;;;;;;22.15;4.53;;;;;;;;;;5385194;26;19996;-74
2024/04/09 12:47:41;;;;;;;19.90;3.72;;;;;;;;;;5390429;26;20337;-73
2024/04/09 12:50:06;;;;;;;16.00;4.78;;;;;;;;;;5379987;26;19992;-74
2024/04/09 12:52:31;;;;;;;25.42;4.45;;;;;;;;;;5383273;26;19996;-73
2024/04/09 12:54:57;;;;;;;17.33;4.25;;;;;;;;;;5389900;26;20006;-73
2024/04/09 12:57:22;;;;;;;20.57;4.23;;;;;;;;;;5381554;26;19996;-73
2024/04/09 12:59:47;;;;;;;19.13;4.60;;;;;;;;;;5387929;26;20230;-73
2024/04/09 13:02:15;;;;;;;24.27;4.73;;;;;;;;;;5382106;26;20584;-73
2024/04/09 13:04:42;;;;;;;23.58;4.85;;;;;;;;;;5385124;26;20468;-74
2024/04/09 13:07:09;;;;;;;17.23;4.25;;;;;;;;;;5390794;26;20000;-74
2024/04/09 13:09:34;;;;;;;25.98;4.40;;;;;;;;;;5388577;26;20000;-74
2024/04/09 13:12:00;;;;;;;20.53;4.37;;;;;;;;;;5380847;26;20010;-74
2024/04/09 13:14:25;;;;;;;19.17;4.60;;;;;;;;;;5383384;26;20234;-73
2024/04/09 13:16:50;;;;;;;26.90;5.40;;;;;;;;;;5399339;26;20014;-74
2024/04/09 13:19:18;;;;;;;29.20;5.63;;;;;;;;;;5403128;26;19996;-73
2024/04/09 13:21:43;;;;;;;25.67;4.85;;;;;;;;;;5393251;26;20330;-73
2024/04/09 13:24:09;;;;;;;22.48;4.72;;;;;;;;;;5395519;26;19996;-73
2024/04/09 13:26:34;;;;;;;23.03;4.93;;;;;;;;;;5396992;26;20032;-74
2024/04/09 13:28:59;;;;;;;23.07;5.10;;;;;;;;;;5388957;26;20775;-74
2024/04/09 13:31:24;;;;;;;23.75;5.45;;;;;;;;;;5380078;26;20231;-73
2024/04/09 13:33:49;;;;;;;18.83;6.00;;;;;;;;;;5389002;26;19996;-74
2024/04/09 13:36:15;;;;;;;19.60;5.30;;;;;;;;;;5392680;26;20011;-74
2024/04/09 13:38:41;;;;;;;21.03;4.90;;;;;;;;;;5389952;26;20274;-74
2024/04/09 13:41:06;;;;;;;24.83;4.63;;;;;;;;;;5380054;26;20373;-74
2024/04/09 13:43:32;;;;;;;19.07;4.27;;;;;;;;;;5389590;26;20000;-74
2024/04/09 13:45:57;;;;;;;19.23;5.15;;;;;;;;;;5380093;26;20290;-74
2024/04/09 13:48:22;;;;;;;20.33;4.65;;;;;;;;;;5384029;26;20001;-74
2024/04/09 13:50:48;;;;;;;25.30;5.17;;;;;;;;;;5380369;26;20011;-74
2024/04/09 13:53:14;;;;;;;18.85;4.40;;;;;;;;;;5383829;26;20237;-74
2024/04/09 13:55:39;;;;;;;20.10;5.13;;;;;;;;;;5384832;26;20419;-74
2024/04/09 13:58:05;;;;;;;30.17;5.75;;;;;;;;;;5385399;26;20011;-74
2024/04/09 14:00:30;;;;;;;26.23;5.05;;;;;;;;;;5387276;26;20524;-74
2024/04/09 14:02:55;;;;;;;20.27;5.47;;;;;;;;;;5394278;26;20007;-73
2024/04/09 14:05:20;;;;;;;22.93;5.40;;;;;;;;;;5400233;26;20238;-74
2024/04/09 14:07:46;;;;;;;23.08;4.38;;;;;;;;;;5380434;26;20366;-74
2024/04/09 14:10:12;;;;;;;17.88;4.20;;;;;;;;;;5393171;26;20072;-74
2024/04/09 14:12:37;;;;;;;14.57;4.60;;;;;;;;;;5374386;26;20460;-74
2024/04/09 14:15:05;;;;;;;24.00;4.93;;;;;;;;;;5400018;26;20468;-73
2024/04/09 14:17:34;;;;;;;17.38;3.80;;;;;;;;;;5387081;26;20000;-73
2024/04/09 14:20:08;;;;;;;24.50;4.53;;;;;;;;;;5389124;26;19996;-74
2024/04/09 14:22:36;;;;;;;18.85;3.85;;;;;;;;;;5385630;26;20348;-73
2024/04/09 14:25:04;;;;;;;15.20;3.05;;;;;;;;;;5393670;26;20000;-73
2024/04/09 14:27:29;;;;;;;20.52;5.07;;;;;;;;;;5392670;26;20027;-73
2024/04/09 14:29:55;;;;;;;15.85;4.07;;;;;;;;;;5392872;26;20016;-73
2024/04/09 14:32:20;;;;;;;16.05;3.65;;;;;;;;;;5385905;26;20076;-73